sensor_id;sensor_type;location;lat;lon;timestamp;temperature;humidity
14962;DHT22;56489;53.166;10.864;2022-09-17T00:00:38;11.40;99.90
14962;DHT22;56489;53.166;10.864;2022-09-17T00:03:06;11.40;99.90
14962;DHT22;56489;53.166;10.864;2022-09-17T00:05:36;11.50;99.90
14962;DHT22;56489;53.166;10.864;2022-09-17T00:08:04;11.50;99.90
14962;DHT22;56489;53.166;10.864;2022-09-17T00:10:37;11.60;99.90
14962;DHT22;56489;53.166;10.864;2022-09-17T00:13:05;11.60;99.90
14962;DHT22;56489;53.166;10.864;2022-09-17T00:15:38;11.60;99.90
14962;DHT22;56489;53.166;10.864;2022-09-17T00:18:04;11.60;99.90
14962;DHT22;56489;53.166;10.864;2022-09-17T00:20:36;11.70;99.90
14962;DHT22;56489;53.166;10.864;2022-09-17T00:23:02;11.70;99.90
14962;DHT22;56489;53.166;10.864;2022-09-17T00:25:29;11.70;99.90
14962;DHT22;56489;53.166;10.864;2022-09-17T00:27:56;11.70;99.90
14962;DHT22;56489;53.166;10.864;2022-09-17T00:30:23;11.70;99.90
14962;DHT22;56489;53.166;10.864;2022-09-17T00:32:50;11.80;99.90
14962;DHT22;56489;53.166;10.864;2022-09-17T00:35:18;11.80;99.90
14962;DHT22;56489;53.166;10.864;2022-09-17T00:37:45;11.80;99.90
14962;DHT22;56489;53.166;10.864;2022-09-17T00:40:12;11.90;99.90
14962;DHT22;56489;53.166;10.864;2022-09-17T00:42:39;11.90;99.90
14962;DHT22;56489;53.166;10.864;2022-09-17T00:45:07;11.90;99.90
14962;DHT22;56489;53.166;10.864;2022-09-17T00:48:20;11.90;99.90
14962;DHT22;56489;53.166;10.864;2022-09-17T00:50:38;12.00;99.90
14962;DHT22;56489;53.166;10.864;2022-09-17T00:53:09;12.00;99.90
14962;DHT22;56489;53.166;10.864;2022-09-17T00:55:42;12.00;99.90
14962;DHT22;56489;53.166;10.864;2022-09-17T00:58:14;12.00;99.90
14962;DHT22;56489;53.166;10.864;2022-09-17T01:00:42;11.90;99.90
14962;DHT22;56489;53.166;10.864;2022-09-17T01:03:09;12.00;99.90
14962;DHT22;56489;53.166;10.864;2022-09-17T01:05:45;12.00;99.90
14962;DHT22;56489;53.166;10.864;2022-09-17T01:08:29;12.00;99.90
14962;DHT22;56489;53.166;10.864;2022-09-17T01:11:20;12.00;99.90
14962;DHT22;56489;53.166;10.864;2022-09-17T01:16:35;12.00;99.90
14962;DHT22;56489;53.166;10.864;2022-09-17T01:25:23;12.00;99.90
14962;DHT22;56489;53.166;10.864;2022-09-17T01:30:32;12.00;99.90
14962;DHT22;56489;53.166;10.864;2022-09-17T01:33:02;12.00;99.90
14962;DHT22;56489;53.166;10.864;2022-09-17T01:36:10;11.90;99.90
14962;DHT22;56489;53.166;10.864;2022-09-17T01:38:53;11.90;99.90
14962;DHT22;56489;53.166;10.864;2022-09-17T01:42:04;11.90;99.90
14962;DHT22;56489;53.166;10.864;2022-09-17T01:44:59;11.80;99.90
14962;DHT22;56489;53.166;10.864;2022-09-17T01:47:43;11.90;99.90
14962;DHT22;56489;53.166;10.864;2022-09-17T01:50:21;11.90;99.90
14962;DHT22;56489;53.166;10.864;2022-09-17T01:52:50;11.90;99.90
14962;DHT22;56489;53.166;10.864;2022-09-17T01:55:20;11.90;99.90
14962;DHT22;56489;53.166;10.864;2022-09-17T01:57:55;11.70;99.90
14962;DHT22;56489;53.166;10.864;2022-09-17T02:00:23;11.80;99.90
14962;DHT22;56489;53.166;10.864;2022-09-17T02:03:09;11.70;99.90
14962;DHT22;56489;53.166;10.864;2022-09-17T02:05:43;11.70;99.90
14962;DHT22;56489;53.166;10.864;2022-09-17T02:08:15;11.60;99.90
14962;DHT22;56489;53.166;10.864;2022-09-17T02:10:47;11.70;99.90
14962;DHT22;56489;53.166;10.864;2022-09-17T02:13:26;11.60;99.90
14962;DHT22;56489;53.166;10.864;2022-09-17T02:16:03;11.60;99.90
14962;DHT22;56489;53.166;10.864;2022-09-17T02:18:53;11.60;99.90
14962;DHT22;56489;53.166;10.864;2022-09-17T02:21:29;11.60;99.90
14962;DHT22;56489;53.166;10.864;2022-09-17T02:24:06;11.60;99.90
14962;DHT22;56489;53.166;10.864;2022-09-17T02:26:38;11.50;99.90
14962;DHT22;56489;53.166;10.864;2022-09-17T02:29:14;11.40;99.90
14962;DHT22;56489;53.166;10.864;2022-09-17T02:31:43;11.40;99.90
14962;DHT22;56489;53.166;10.864;2022-09-17T02:34:10;11.20;99.90
14962;DHT22;56489;53.166;10.864;2022-09-17T02:36:37;11.40;99.90
14962;DHT22;56489;53.166;10.864;2022-09-17T02:39:04;11.20;99.90
14962;DHT22;56489;53.166;10.864;2022-09-17T02:41:43;11.20;99.90
14962;DHT22;56489;53.166;10.864;2022-09-17T02:52:45;11.10;99.90
14962;DHT22;56489;53.166;10.864;2022-09-17T02:55:19;11.00;99.90
14962;DHT22;56489;53.166;10.864;2022-09-17T03:00:52;10.90;99.90
14962;DHT22;56489;53.166;10.864;2022-09-17T03:03:30;10.90;99.90
14962;DHT22;56489;53.166;10.864;2022-09-17T03:05:59;10.80;99.90
14962;DHT22;56489;53.166;10.864;2022-09-17T03:08:33;10.80;99.90
14962;DHT22;56489;53.166;10.864;2022-09-17T03:11:00;10.70;99.90
14962;DHT22;56489;53.166;10.864;2022-09-17T03:13:27;10.60;99.90
14962;DHT22;56489;53.166;10.864;2022-09-17T03:15:54;10.70;99.90
14962;DHT22;56489;53.166;10.864;2022-09-17T03:18:21;10.70;99.90
14962;DHT22;56489;53.166;10.864;2022-09-17T03:20:47;10.60;99.90
14962;DHT22;56489;53.166;10.864;2022-09-17T03:23:14;10.60;99.90
14962;DHT22;56489;53.166;10.864;2022-09-17T03:25:42;10.60;99.90
14962;DHT22;56489;53.166;10.864;2022-09-17T03:28:08;10.60;99.90
14962;DHT22;56489;53.166;10.864;2022-09-17T03:30:35;10.60;99.90
14962;DHT22;56489;53.166;10.864;2022-09-17T03:33:02;10.60;99.90
14962;DHT22;56489;53.166;10.864;2022-09-17T03:35:29;10.60;99.90
14962;DHT22;56489;53.166;10.864;2022-09-17T03:37:56;10.60;99.90
14962;DHT22;56489;53.166;10.864;2022-09-17T03:40:22;10.60;99.90
14962;DHT22;56489;53.166;10.864;2022-09-17T03:42:49;10.50;99.90
14962;DHT22;56489;53.166;10.864;2022-09-17T03:45:16;10.50;99.90
14962;DHT22;56489;53.166;10.864;2022-09-17T03:47:43;10.60;99.90
14962;DHT22;56489;53.166;10.864;2022-09-17T03:50:10;10.70;99.90
14962;DHT22;56489;53.166;10.864;2022-09-17T03:52:37;10.70;99.90
14962;DHT22;56489;53.166;10.864;2022-09-17T03:55:03;10.80;99.90
14962;DHT22;56489;53.166;10.864;2022-09-17T03:57:30;10.80;99.90
14962;DHT22;56489;53.166;10.864;2022-09-17T03:59:57;10.80;99.90
14962;DHT22;56489;53.166;10.864;2022-09-17T04:02:24;10.90;99.90
14962;DHT22;56489;53.166;10.864;2022-09-17T04:04:51;10.90;99.90
14962;DHT22;56489;53.166;10.864;2022-09-17T04:07:19;10.90;99.90
14962;DHT22;56489;53.166;10.864;2022-09-17T04:09:46;10.90;99.90
14962;DHT22;56489;53.166;10.864;2022-09-17T04:12:12;11.00;99.90
14962;DHT22;56489;53.166;10.864;2022-09-17T04:14:39;11.00;99.90
14962;DHT22;56489;53.166;10.864;2022-09-17T04:17:06;11.10;99.90
14962;DHT22;56489;53.166;10.864;2022-09-17T04:19:33;11.10;99.90
14962;DHT22;56489;53.166;10.864;2022-09-17T04:22:00;11.00;99.90
14962;DHT22;56489;53.166;10.864;2022-09-17T04:24:27;11.00;99.90
14962;DHT22;56489;53.166;10.864;2022-09-17T04:26:53;11.00;99.90
14962;DHT22;56489;53.166;10.864;2022-09-17T04:29:20;11.00;99.90
14962;DHT22;56489;53.166;10.864;2022-09-17T04:31:47;11.00;99.90
14962;DHT22;56489;53.166;10.864;2022-09-17T04:34:13;11.00;99.90
14962;DHT22;56489;53.166;10.864;2022-09-17T04:36:40;11.00;99.90
14962;DHT22;56489;53.166;10.864;2022-09-17T04:39:07;11.00;99.90
14962;DHT22;56489;53.166;10.864;2022-09-17T04:41:34;10.90;99.90
14962;DHT22;56489;53.166;10.864;2022-09-17T04:44:01;11.00;99.90
14962;DHT22;56489;53.166;10.864;2022-09-17T04:46:28;11.00;99.90
14962;DHT22;56489;53.166;10.864;2022-09-17T04:48:57;10.90;99.90
14962;DHT22;56489;53.166;10.864;2022-09-17T04:51:24;11.00;99.90
14962;DHT22;56489;53.166;10.864;2022-09-17T04:53:51;11.00;99.90
14962;DHT22;56489;53.166;10.864;2022-09-17T04:56:18;11.00;99.90
14962;DHT22;56489;53.166;10.864;2022-09-17T04:58:45;11.00;99.90
14962;DHT22;56489;53.166;10.864;2022-09-17T05:01:12;10.90;99.90
14962;DHT22;56489;53.166;10.864;2022-09-17T05:03:40;11.00;99.90
14962;DHT22;56489;53.166;10.864;2022-09-17T05:06:07;11.00;99.90
14962;DHT22;56489;53.166;10.864;2022-09-17T05:08:34;11.00;99.90
14962;DHT22;56489;53.166;10.864;2022-09-17T05:11:02;11.20;99.90
14962;DHT22;56489;53.166;10.864;2022-09-17T05:13:29;11.10;99.90
14962;DHT22;56489;53.166;10.864;2022-09-17T05:15:55;11.00;99.90
14962;DHT22;56489;53.166;10.864;2022-09-17T05:18:23;11.00;99.90
14962;DHT22;56489;53.166;10.864;2022-09-17T05:20:51;11.10;99.90
14962;DHT22;56489;53.166;10.864;2022-09-17T05:23:18;11.10;99.90
14962;DHT22;56489;53.166;10.864;2022-09-17T05:25:45;11.10;99.90
14962;DHT22;56489;53.166;10.864;2022-09-17T05:28:12;11.20;99.90
14962;DHT22;56489;53.166;10.864;2022-09-17T05:30:39;11.20;99.90
14962;DHT22;56489;53.166;10.864;2022-09-17T05:33:06;11.20;99.90
14962;DHT22;56489;53.166;10.864;2022-09-17T05:35:33;11.20;99.90
14962;DHT22;56489;53.166;10.864;2022-09-17T05:38:04;11.20;99.90
14962;DHT22;56489;53.166;10.864;2022-09-17T05:40:32;11.40;99.90
14962;DHT22;56489;53.166;10.864;2022-09-17T05:43:00;11.40;99.90
14962;DHT22;56489;53.166;10.864;2022-09-17T05:45:28;11.30;99.90
14962;DHT22;56489;53.166;10.864;2022-09-17T05:47:56;11.40;99.90
14962;DHT22;56489;53.166;10.864;2022-09-17T05:50:23;11.60;99.90
14962;DHT22;56489;53.166;10.864;2022-09-17T05:52:51;11.60;99.90
14962;DHT22;56489;53.166;10.864;2022-09-17T05:55:18;11.50;99.90
14962;DHT22;56489;53.166;10.864;2022-09-17T05:57:45;11.50;99.90
14962;DHT22;56489;53.166;10.864;2022-09-17T06:00:12;11.50;99.90
14962;DHT22;56489;53.166;10.864;2022-09-17T06:02:39;11.50;99.90
14962;DHT22;56489;53.166;10.864;2022-09-17T06:05:06;11.60;99.90
14962;DHT22;56489;53.166;10.864;2022-09-17T06:07:34;11.60;99.90
14962;DHT22;56489;53.166;10.864;2022-09-17T06:10:03;11.50;99.90
14962;DHT22;56489;53.166;10.864;2022-09-17T06:12:30;11.70;99.90
14962;DHT22;56489;53.166;10.864;2022-09-17T06:14:57;11.80;99.90
14962;DHT22;56489;53.166;10.864;2022-09-17T06:17:24;11.80;99.90
14962;DHT22;56489;53.166;10.864;2022-09-17T06:19:51;11.90;99.90
14962;DHT22;56489;53.166;10.864;2022-09-17T06:22:18;11.90;99.90
14962;DHT22;56489;53.166;10.864;2022-09-17T06:24:46;11.90;99.90
14962;DHT22;56489;53.166;10.864;2022-09-17T06:27:13;12.00;99.90
14962;DHT22;56489;53.166;10.864;2022-09-17T06:29:40;11.90;99.90
14962;DHT22;56489;53.166;10.864;2022-09-17T06:32:07;12.10;99.90
14962;DHT22;56489;53.166;10.864;2022-09-17T06:34:37;12.00;99.90
14962;DHT22;56489;53.166;10.864;2022-09-17T06:37:04;12.10;99.90
14962;DHT22;56489;53.166;10.864;2022-09-17T06:39:31;12.10;99.90
14962;DHT22;56489;53.166;10.864;2022-09-17T06:41:58;12.00;99.90
14962;DHT22;56489;53.166;10.864;2022-09-17T06:44:25;12.10;99.90
14962;DHT22;56489;53.166;10.864;2022-09-17T06:46:52;12.10;99.90
14962;DHT22;56489;53.166;10.864;2022-09-17T06:49:19;12.10;99.90
14962;DHT22;56489;53.166;10.864;2022-09-17T06:51:46;12.10;99.90
14962;DHT22;56489;53.166;10.864;2022-09-17T06:54:12;12.20;99.90
14962;DHT22;56489;53.166;10.864;2022-09-17T06:56:39;12.30;99.90
14962;DHT22;56489;53.166;10.864;2022-09-17T06:59:05;12.40;99.90
14962;DHT22;56489;53.166;10.864;2022-09-17T07:01:32;12.50;99.90
14962;DHT22;56489;53.166;10.864;2022-09-17T07:03:59;12.60;99.90
14962;DHT22;56489;53.166;10.864;2022-09-17T07:06:26;12.80;99.90
14962;DHT22;56489;53.166;10.864;2022-09-17T07:08:52;12.90;99.90
14962;DHT22;56489;53.166;10.864;2022-09-17T07:11:19;13.00;99.90
14962;DHT22;56489;53.166;10.864;2022-09-17T07:13:46;13.20;99.90
14962;DHT22;56489;53.166;10.864;2022-09-17T07:16:13;13.20;99.90
14962;DHT22;56489;53.166;10.864;2022-09-17T07:18:39;13.30;99.90
14962;DHT22;56489;53.166;10.864;2022-09-17T07:21:08;13.30;99.90
14962;DHT22;56489;53.166;10.864;2022-09-17T07:23:35;13.20;99.90
14962;DHT22;56489;53.166;10.864;2022-09-17T07:26:11;13.10;99.90
14962;DHT22;56489;53.166;10.864;2022-09-17T07:28:38;13.00;99.90
14962;DHT22;56489;53.166;10.864;2022-09-17T07:31:06;12.90;99.90
14962;DHT22;56489;53.166;10.864;2022-09-17T07:33:39;12.90;99.90
14962;DHT22;56489;53.166;10.864;2022-09-17T07:36:11;12.80;99.90
14962;DHT22;56489;53.166;10.864;2022-09-17T07:38:37;12.70;99.90
14962;DHT22;56489;53.166;10.864;2022-09-17T07:41:08;12.60;99.90
14962;DHT22;56489;53.166;10.864;2022-09-17T07:43:38;12.60;99.90
14962;DHT22;56489;53.166;10.864;2022-09-17T07:46:06;12.50;99.90
14962;DHT22;56489;53.166;10.864;2022-09-17T07:48:33;12.60;99.90
14962;DHT22;56489;53.166;10.864;2022-09-17T07:51:00;12.80;99.90
14962;DHT22;56489;53.166;10.864;2022-09-17T07:53:27;12.70;99.90
14962;DHT22;56489;53.166;10.864;2022-09-17T07:55:55;13.00;99.90
14962;DHT22;56489;53.166;10.864;2022-09-17T07:58:27;13.00;99.90
14962;DHT22;56489;53.166;10.864;2022-09-17T08:01:05;13.10;99.90
14962;DHT22;56489;53.166;10.864;2022-09-17T08:03:32;13.10;99.90
14962;DHT22;56489;53.166;10.864;2022-09-17T08:06:13;13.10;99.90
14962;DHT22;56489;53.166;10.864;2022-09-17T08:08:40;13.10;99.90
14962;DHT22;56489;53.166;10.864;2022-09-17T08:11:10;13.10;99.90
14962;DHT22;56489;53.166;10.864;2022-09-17T08:13:38;13.00;99.90
14962;DHT22;56489;53.166;10.864;2022-09-17T08:16:10;13.00;99.90
14962;DHT22;56489;53.166;10.864;2022-09-17T08:18:39;12.90;99.90
14962;DHT22;56489;53.166;10.864;2022-09-17T08:21:09;12.80;99.90
14962;DHT22;56489;53.166;10.864;2022-09-17T08:23:39;12.90;99.90
14962;DHT22;56489;53.166;10.864;2022-09-17T08:26:10;12.80;99.90
14962;DHT22;56489;53.166;10.864;2022-09-17T08:28:37;12.80;99.90
14962;DHT22;56489;53.166;10.864;2022-09-17T08:31:06;13.10;99.90
14962;DHT22;56489;53.166;10.864;2022-09-17T08:33:36;13.30;99.90
14962;DHT22;56489;53.166;10.864;2022-09-17T08:36:04;13.60;99.90
14962;DHT22;56489;53.166;10.864;2022-09-17T08:38:32;13.80;99.90
14962;DHT22;56489;53.166;10.864;2022-09-17T08:43:50;14.00;99.90
14962;DHT22;56489;53.166;10.864;2022-09-17T08:46:17;14.00;99.90
14962;DHT22;56489;53.166;10.864;2022-09-17T08:48:52;13.90;99.90
14962;DHT22;56489;53.166;10.864;2022-09-17T08:54:20;13.90;99.90
14962;DHT22;56489;53.166;10.864;2022-09-17T09:00:11;13.90;99.90
14962;DHT22;56489;53.166;10.864;2022-09-17T09:02:52;14.00;99.90
14962;DHT22;56489;53.166;10.864;2022-09-17T09:05:26;14.10;99.90
14962;DHT22;56489;53.166;10.864;2022-09-17T09:08:02;14.10;99.90
14962;DHT22;56489;53.166;10.864;2022-09-17T09:10:41;14.00;99.90
14962;DHT22;56489;53.166;10.864;2022-09-17T09:13:11;13.90;99.90
14962;DHT22;56489;53.166;10.864;2022-09-17T09:15:47;13.70;99.90
14962;DHT22;56489;53.166;10.864;2022-09-17T09:18:22;13.50;99.90
14962;DHT22;56489;53.166;10.864;2022-09-17T09:20:52;13.50;99.90
14962;DHT22;56489;53.166;10.864;2022-09-17T09:23:31;13.40;99.90
14962;DHT22;56489;53.166;10.864;2022-09-17T09:26:20;13.60;99.90
14962;DHT22;56489;53.166;10.864;2022-09-17T09:28:51;13.70;99.90
14962;DHT22;56489;53.166;10.864;2022-09-17T09:31:50;13.70;99.90
14962;DHT22;56489;53.166;10.864;2022-09-17T09:34:21;13.80;99.90
14962;DHT22;56489;53.166;10.864;2022-09-17T09:36:50;14.00;99.90
14962;DHT22;56489;53.166;10.864;2022-09-17T09:39:22;14.10;99.90
14962;DHT22;56489;53.166;10.864;2022-09-17T09:41:54;14.40;99.90
14962;DHT22;56489;53.166;10.864;2022-09-17T09:44:24;14.70;99.90
14962;DHT22;56489;53.166;10.864;2022-09-17T09:53:35;15.20;99.90
14962;DHT22;56489;53.166;10.864;2022-09-17T09:56:27;15.00;99.90
14962;DHT22;56489;53.166;10.864;2022-09-17T09:58:58;14.70;99.90
14962;DHT22;56489;53.166;10.864;2022-09-17T10:01:26;14.40;99.90
14962;DHT22;56489;53.166;10.864;2022-09-17T10:03:54;14.20;99.90
14962;DHT22;56489;53.166;10.864;2022-09-17T10:06:28;14.10;99.90
14962;DHT22;56489;53.166;10.864;2022-09-17T10:11:30;13.90;99.90
14962;DHT22;56489;53.166;10.864;2022-09-17T10:14:21;13.90;99.90
14962;DHT22;56489;53.166;10.864;2022-09-17T10:16:52;13.90;99.90
14962;DHT22;56489;53.166;10.864;2022-09-17T10:19:35;13.80;99.90
14962;DHT22;56489;53.166;10.864;2022-09-17T10:24:45;14.00;99.90
14962;DHT22;56489;53.166;10.864;2022-09-17T10:27:16;14.10;99.90
14962;DHT22;56489;53.166;10.864;2022-09-17T10:29:45;14.20;99.90
14962;DHT22;56489;53.166;10.864;2022-09-17T10:32:17;14.40;99.90
14962;DHT22;56489;53.166;10.864;2022-09-17T10:35:13;14.50;99.90
14962;DHT22;56489;53.166;10.864;2022-09-17T10:37:51;14.50;99.90
14962;DHT22;56489;53.166;10.864;2022-09-17T10:42:48;14.20;99.90
14962;DHT22;56489;53.166;10.864;2022-09-17T10:45:29;14.20;99.90
14962;DHT22;56489;53.166;10.864;2022-09-17T10:47:58;14.20;99.90
14962;DHT22;56489;53.166;10.864;2022-09-17T10:50:30;14.30;99.90
14962;DHT22;56489;53.166;10.864;2022-09-17T10:53:01;14.40;99.90
14962;DHT22;56489;53.166;10.864;2022-09-17T10:55:39;14.50;99.90
14962;DHT22;56489;53.166;10.864;2022-09-17T10:58:17;14.70;99.90
14962;DHT22;56489;53.166;10.864;2022-09-17T11:03:34;14.90;99.90
14962;DHT22;56489;53.166;10.864;2022-09-17T11:06:38;14.80;99.90
14962;DHT22;56489;53.166;10.864;2022-09-17T11:09:25;14.70;99.90
14962;DHT22;56489;53.166;10.864;2022-09-17T11:14:50;14.70;99.90
14962;DHT22;56489;53.166;10.864;2022-09-17T11:17:45;14.90;99.90
14962;DHT22;56489;53.166;10.864;2022-09-17T11:20:31;14.90;99.90
14962;DHT22;56489;53.166;10.864;2022-09-17T11:25:59;15.00;99.90
14962;DHT22;56489;53.166;10.864;2022-09-17T11:31:14;14.70;99.90
14962;DHT22;56489;53.166;10.864;2022-09-17T11:39:29;15.10;99.90
14962;DHT22;56489;53.166;10.864;2022-09-17T11:42:00;15.30;99.90
14962;DHT22;56489;53.166;10.864;2022-09-17T11:44:42;15.40;99.90
14962;DHT22;56489;53.166;10.864;2022-09-17T11:47:24;15.50;99.90
14962;DHT22;56489;53.166;10.864;2022-09-17T11:50:03;15.40;99.90
14962;DHT22;56489;53.166;10.864;2022-09-17T11:52:37;15.30;99.90
14962;DHT22;56489;53.166;10.864;2022-09-17T11:58:14;14.90;99.90
14962;DHT22;56489;53.166;10.864;2022-09-17T12:00:53;14.50;99.90
14962;DHT22;56489;53.166;10.864;2022-09-17T12:03:31;14.30;99.90
14962;DHT22;56489;53.166;10.864;2022-09-17T12:06:09;14.30;99.90
14962;DHT22;56489;53.166;10.864;2022-09-17T12:09:00;14.30;99.90
14962;DHT22;56489;53.166;10.864;2022-09-17T12:12:17;14.40;99.90
14962;DHT22;56489;53.166;10.864;2022-09-17T12:15:11;14.60;99.90
14962;DHT22;56489;53.166;10.864;2022-09-17T12:20:53;14.90;99.90
14962;DHT22;56489;53.166;10.864;2022-09-17T12:23:53;14.80;99.90
14962;DHT22;56489;53.166;10.864;2022-09-17T12:32:42;14.00;99.90
14962;DHT22;56489;53.166;10.864;2022-09-17T12:52:05;13.80;99.90
14962;DHT22;56489;53.166;10.864;2022-09-17T12:54:54;13.90;99.90
14962;DHT22;56489;53.166;10.864;2022-09-17T12:57:45;13.90;99.90
14962;DHT22;56489;53.166;10.864;2022-09-17T13:00:16;14.00;99.90
14962;DHT22;56489;53.166;10.864;2022-09-17T13:03:11;14.00;99.90
14962;DHT22;56489;53.166;10.864;2022-09-17T13:06:20;13.90;99.90
14962;DHT22;56489;53.166;10.864;2022-09-17T13:14:55;13.60;99.90
14962;DHT22;56489;53.166;10.864;2022-09-17T13:17:31;13.60;99.90
14962;DHT22;56489;53.166;10.864;2022-09-17T13:20:46;13.50;99.90
14962;DHT22;56489;53.166;10.864;2022-09-17T13:22:55;13.70;99.90
14962;DHT22;56489;53.166;10.864;2022-09-17T13:25:22;13.70;99.90
14962;DHT22;56489;53.166;10.864;2022-09-17T13:28:05;13.80;99.90
14962;DHT22;56489;53.166;10.864;2022-09-17T13:30:58;13.80;99.90
14962;DHT22;56489;53.166;10.864;2022-09-17T13:33:48;13.80;99.90
14962;DHT22;56489;53.166;10.864;2022-09-17T13:39:46;13.60;99.90
14962;DHT22;56489;53.166;10.864;2022-09-17T13:42:29;13.50;99.90
14962;DHT22;56489;53.166;10.864;2022-09-17T13:45:04;13.40;99.90
14962;DHT22;56489;53.166;10.864;2022-09-17T13:47:51;13.20;99.90
14962;DHT22;56489;53.166;10.864;2022-09-17T13:50:36;13.10;99.90
14962;DHT22;56489;53.166;10.864;2022-09-17T14:01:11;12.90;99.90
14962;DHT22;56489;53.166;10.864;2022-09-17T14:21:54;13.10;99.90
14962;DHT22;56489;53.166;10.864;2022-09-17T14:24:33;13.20;99.90
14962;DHT22;56489;53.166;10.864;2022-09-17T14:30:25;13.50;99.90
14962;DHT22;56489;53.166;10.864;2022-09-17T14:33:07;13.70;99.90
14962;DHT22;56489;53.166;10.864;2022-09-17T14:38:44;13.90;99.90
14962;DHT22;56489;53.166;10.864;2022-09-17T14:43:45;14.10;99.90
14962;DHT22;56489;53.166;10.864;2022-09-17T14:46:19;14.00;99.90
14962;DHT22;56489;53.166;10.864;2022-09-17T14:48:47;13.90;99.90
14962;DHT22;56489;53.166;10.864;2022-09-17T14:53:47;13.80;99.90
14962;DHT22;56489;53.166;10.864;2022-09-17T14:56:20;13.70;99.90
14962;DHT22;56489;53.166;10.864;2022-09-17T14:58:52;13.80;99.90
14962;DHT22;56489;53.166;10.864;2022-09-17T15:01:24;13.90;99.90
14962;DHT22;56489;53.166;10.864;2022-09-17T15:06:38;13.90;99.90
14962;DHT22;56489;53.166;10.864;2022-09-17T15:09:05;13.90;99.90
14962;DHT22;56489;53.166;10.864;2022-09-17T15:11:39;14.00;99.90
14962;DHT22;56489;53.166;10.864;2022-09-17T15:14:15;14.10;99.90
14962;DHT22;56489;53.166;10.864;2022-09-17T15:16:53;14.10;99.90
14962;DHT22;56489;53.166;10.864;2022-09-17T15:22:20;14.30;99.90
14962;DHT22;56489;53.166;10.864;2022-09-17T15:24:56;14.30;99.90
14962;DHT22;56489;53.166;10.864;2022-09-17T15:27:35;14.30;99.90
14962;DHT22;56489;53.166;10.864;2022-09-17T15:30:15;14.30;99.90
14962;DHT22;56489;53.166;10.864;2022-09-17T15:32:57;14.30;99.90
14962;DHT22;56489;53.166;10.864;2022-09-17T15:35:32;14.20;99.90
14962;DHT22;56489;53.166;10.864;2022-09-17T15:38:01;14.10;99.90
14962;DHT22;56489;53.166;10.864;2022-09-17T15:40:48;14.00;99.90
14962;DHT22;56489;53.166;10.864;2022-09-17T15:43:27;13.90;99.90
14962;DHT22;56489;53.166;10.864;2022-09-17T15:45:55;13.80;99.90
14962;DHT22;56489;53.166;10.864;2022-09-17T15:50:58;13.60;99.90
14962;DHT22;56489;53.166;10.864;2022-09-17T15:53:27;13.50;99.90
14962;DHT22;56489;53.166;10.864;2022-09-17T15:56:03;13.40;99.90
14962;DHT22;56489;53.166;10.864;2022-09-17T15:58:35;13.40;99.90
14962;DHT22;56489;53.166;10.864;2022-09-17T16:08:50;12.90;99.90
14962;DHT22;56489;53.166;10.864;2022-09-17T16:11:19;13.00;99.90
14962;DHT22;56489;53.166;10.864;2022-09-17T16:13:47;13.00;99.90
14962;DHT22;56489;53.166;10.864;2022-09-17T16:18:45;13.00;99.90
14962;DHT22;56489;53.166;10.864;2022-09-17T16:21:13;13.00;99.90
14962;DHT22;56489;53.166;10.864;2022-09-17T16:23:41;13.00;99.90
14962;DHT22;56489;53.166;10.864;2022-09-17T16:26:14;13.00;99.90
14962;DHT22;56489;53.166;10.864;2022-09-17T16:28:43;12.90;99.90
14962;DHT22;56489;53.166;10.864;2022-09-17T16:31:12;12.90;99.90
14962;DHT22;56489;53.166;10.864;2022-09-17T16:33:40;12.90;99.90
14962;DHT22;56489;53.166;10.864;2022-09-17T16:36:07;12.90;99.90
14962;DHT22;56489;53.166;10.864;2022-09-17T16:38:34;12.90;99.90
14962;DHT22;56489;53.166;10.864;2022-09-17T16:41:04;12.90;99.90
14962;DHT22;56489;53.166;10.864;2022-09-17T16:43:30;12.80;99.90
14962;DHT22;56489;53.166;10.864;2022-09-17T16:46:07;12.80;99.90
14962;DHT22;56489;53.166;10.864;2022-09-17T16:48:36;12.70;99.90
14962;DHT22;56489;53.166;10.864;2022-09-17T16:51:07;12.70;99.90
14962;DHT22;56489;53.166;10.864;2022-09-17T16:53:34;12.70;99.90
14962;DHT22;56489;53.166;10.864;2022-09-17T16:56:08;12.70;99.90
14962;DHT22;56489;53.166;10.864;2022-09-17T16:58:35;12.70;99.90
14962;DHT22;56489;53.166;10.864;2022-09-17T17:01:10;12.60;99.90
14962;DHT22;56489;53.166;10.864;2022-09-17T17:03:37;12.60;99.90
14962;DHT22;56489;53.166;10.864;2022-09-17T17:06:04;12.60;99.90
14962;DHT22;56489;53.166;10.864;2022-09-17T17:08:31;12.60;99.90
14962;DHT22;56489;53.166;10.864;2022-09-17T17:11:00;12.70;99.90
14962;DHT22;56489;53.166;10.864;2022-09-17T17:13:27;12.70;99.90
14962;DHT22;56489;53.166;10.864;2022-09-17T17:15:57;12.50;99.90
14962;DHT22;56489;53.166;10.864;2022-09-17T17:18:23;12.50;99.90
14962;DHT22;56489;53.166;10.864;2022-09-17T17:20:51;12.50;99.90
14962;DHT22;56489;53.166;10.864;2022-09-17T17:23:21;12.40;99.90
14962;DHT22;56489;53.166;10.864;2022-09-17T17:25:47;12.40;99.90
14962;DHT22;56489;53.166;10.864;2022-09-17T17:28:15;12.30;99.90
14962;DHT22;56489;53.166;10.864;2022-09-17T17:30:46;12.20;99.90
14962;DHT22;56489;53.166;10.864;2022-09-17T17:33:13;12.20;99.90
14962;DHT22;56489;53.166;10.864;2022-09-17T17:35:39;12.10;99.90
14962;DHT22;56489;53.166;10.864;2022-09-17T17:38:06;12.10;99.90
14962;DHT22;56489;53.166;10.864;2022-09-17T17:40:33;12.10;99.90
14962;DHT22;56489;53.166;10.864;2022-09-17T17:43:00;12.10;99.90
14962;DHT22;56489;53.166;10.864;2022-09-17T17:45:27;12.10;99.90
14962;DHT22;56489;53.166;10.864;2022-09-17T17:47:54;12.10;99.90
14962;DHT22;56489;53.166;10.864;2022-09-17T17:50:20;12.10;99.90
14962;DHT22;56489;53.166;10.864;2022-09-17T17:52:47;12.10;99.90
14962;DHT22;56489;53.166;10.864;2022-09-17T17:55:15;12.10;99.90
14962;DHT22;56489;53.166;10.864;2022-09-17T17:57:42;12.20;99.90
14962;DHT22;56489;53.166;10.864;2022-09-17T18:00:09;12.10;99.90
14962;DHT22;56489;53.166;10.864;2022-09-17T18:02:40;12.20;99.90
14962;DHT22;56489;53.166;10.864;2022-09-17T18:05:07;12.20;99.90
14962;DHT22;56489;53.166;10.864;2022-09-17T18:07:34;12.20;99.90
14962;DHT22;56489;53.166;10.864;2022-09-17T18:10:00;12.30;99.90
14962;DHT22;56489;53.166;10.864;2022-09-17T18:12:27;12.20;99.90
14962;DHT22;56489;53.166;10.864;2022-09-17T18:14:54;12.20;99.90
14962;DHT22;56489;53.166;10.864;2022-09-17T18:17:21;12.20;99.90
14962;DHT22;56489;53.166;10.864;2022-09-17T18:19:47;12.20;99.90
14962;DHT22;56489;53.166;10.864;2022-09-17T18:22:14;12.20;99.90